sensor_id;sensor_type;location;lat;lon;timestamp;temperature;humidity
40059;SHT31;25763;49.972;8.568;2022-12-29T00:01:16;10.61;75.54
40059;SHT31;25763;49.972;8.568;2022-12-29T00:03:41;10.64;75.26
40059;SHT31;25763;49.972;8.568;2022-12-29T00:06:07;10.64;75.37
40059;SHT31;25763;49.972;8.568;2022-12-29T00:08:32;10.59;75.33
40059;SHT31;25763;49.972;8.568;2022-12-29T00:11:26;10.62;75.23
40059;SHT31;25763;49.972;8.568;2022-12-29T00:13:52;10.61;75.26
40059;SHT31;25763;49.972;8.568;2022-12-29T00:16:37;10.61;75.15
40059;SHT31;25763;49.972;8.568;2022-12-29T00:19:03;10.64;74.98
40059;SHT31;25763;49.972;8.568;2022-12-29T00:21:29;10.65;75.16
40059;SHT31;25763;49.972;8.568;2022-12-29T00:24:17;10.65;75.21
40059;SHT31;25763;49.972;8.568;2022-12-29T00:26:58;10.71;75.24
40059;SHT31;25763;49.972;8.568;2022-12-29T00:29:49;10.75;75.35
40059;SHT31;25763;49.972;8.568;2022-12-29T00:32:33;10.73;76.13
40059;SHT31;25763;49.972;8.568;2022-12-29T00:37:50;10.79;77.42
40059;SHT31;25763;49.972;8.568;2022-12-29T00:40:35;10.93;78.04
40059;SHT31;25763;49.972;8.568;2022-12-29T00:43:18;11.00;78.74
40059;SHT31;25763;49.972;8.568;2022-12-29T00:46:02;11.08;79.07
40059;SHT31;25763;49.972;8.568;2022-12-29T00:48:28;11.08;79.94
40059;SHT31;25763;49.972;8.568;2022-12-29T00:51:11;11.07;80.83
40059;SHT31;25763;49.972;8.568;2022-12-29T00:53:37;11.07;80.86
40059;SHT31;25763;49.972;8.568;2022-12-29T00:56:02;11.04;80.99
40059;SHT31;25763;49.972;8.568;2022-12-29T00:58:29;11.12;81.00
40059;SHT31;25763;49.972;8.568;2022-12-29T01:01:05;11.10;81.08
40059;SHT31;25763;49.972;8.568;2022-12-29T01:03:32;11.08;81.17
40059;SHT31;25763;49.972;8.568;2022-12-29T01:06:07;11.11;81.27
40059;SHT31;25763;49.972;8.568;2022-12-29T01:08:34;11.12;81.25
40059;SHT31;25763;49.972;8.568;2022-12-29T01:11:10;11.15;81.28
40059;SHT31;25763;49.972;8.568;2022-12-29T01:13:36;11.14;81.25
40059;SHT31;25763;49.972;8.568;2022-12-29T01:16:04;11.15;81.34
40059;SHT31;25763;49.972;8.568;2022-12-29T01:18:29;11.21;81.26
40059;SHT31;25763;49.972;8.568;2022-12-29T01:21:03;11.20;81.26
40059;SHT31;25763;49.972;8.568;2022-12-29T01:23:29;11.15;81.42
40059;SHT31;25763;49.972;8.568;2022-12-29T01:25:54;11.18;81.49
40059;SHT31;25763;49.972;8.568;2022-12-29T01:28:20;11.20;81.47
40059;SHT31;25763;49.972;8.568;2022-12-29T01:30:46;11.18;81.47
40059;SHT31;25763;49.972;8.568;2022-12-29T01:33:11;11.15;81.51
40059;SHT31;25763;49.972;8.568;2022-12-29T01:35:36;11.11;81.62
40059;SHT31;25763;49.972;8.568;2022-12-29T01:38:02;11.14;81.66
40059;SHT31;25763;49.972;8.568;2022-12-29T01:40:27;11.14;81.67
40059;SHT31;25763;49.972;8.568;2022-12-29T01:42:53;11.11;81.83
40059;SHT31;25763;49.972;8.568;2022-12-29T01:45:19;11.17;81.70
40059;SHT31;25763;49.972;8.568;2022-12-29T01:47:48;11.20;81.61
40059;SHT31;25763;49.972;8.568;2022-12-29T01:50:26;11.18;81.62
40059;SHT31;25763;49.972;8.568;2022-12-29T01:53:00;11.18;81.61
40059;SHT31;25763;49.972;8.568;2022-12-29T01:55:29;11.17;81.74
40059;SHT31;25763;49.972;8.568;2022-12-29T01:58:01;11.15;81.66
40059;SHT31;25763;49.972;8.568;2022-12-29T02:00:27;11.18;81.54
40059;SHT31;25763;49.972;8.568;2022-12-29T02:02:53;11.20;81.49
40059;SHT31;25763;49.972;8.568;2022-12-29T02:07:48;11.25;81.28
40059;SHT31;25763;49.972;8.568;2022-12-29T02:10:15;11.27;81.22
40059;SHT31;25763;49.972;8.568;2022-12-29T02:12:40;11.27;81.23
40059;SHT31;25763;49.972;8.568;2022-12-29T02:15:06;11.28;81.10
40059;SHT31;25763;49.972;8.568;2022-12-29T02:20:50;11.34;80.80
40059;SHT31;25763;49.972;8.568;2022-12-29T02:31:41;11.45;80.43
40059;SHT31;25763;49.972;8.568;2022-12-29T02:39:09;11.46;80.51
40059;SHT31;25763;49.972;8.568;2022-12-29T02:52:35;11.32;81.05
40059;SHT31;25763;49.972;8.568;2022-12-29T02:55:02;11.32;81.05
40059;SHT31;25763;49.972;8.568;2022-12-29T02:57:33;11.32;81.12
40059;SHT31;25763;49.972;8.568;2022-12-29T03:00:14;11.35;80.98
40059;SHT31;25763;49.972;8.568;2022-12-29T03:06:00;11.39;80.85
40059;SHT31;25763;49.972;8.568;2022-12-29T03:08:45;11.41;80.88
40059;SHT31;25763;49.972;8.568;2022-12-29T03:11:14;11.45;80.56
40059;SHT31;25763;49.972;8.568;2022-12-29T03:16:53;11.45;80.42
40059;SHT31;25763;49.972;8.568;2022-12-29T03:22:12;11.53;80.12
40059;SHT31;25763;49.972;8.568;2022-12-29T03:25:02;11.53;80.00
40059;SHT31;25763;49.972;8.568;2022-12-29T03:27:44;11.55;79.99
40059;SHT31;25763;49.972;8.568;2022-12-29T03:30:10;11.53;79.93
40059;SHT31;25763;49.972;8.568;2022-12-29T03:32:48;11.55;79.71
40059;SHT31;25763;49.972;8.568;2022-12-29T03:35:17;11.51;79.86
40059;SHT31;25763;49.972;8.568;2022-12-29T03:40:18;11.56;79.42
40059;SHT31;25763;49.972;8.568;2022-12-29T03:42:46;11.56;79.40
40059;SHT31;25763;49.972;8.568;2022-12-29T03:45:13;11.55;79.37
40059;SHT31;25763;49.972;8.568;2022-12-29T03:47:39;11.58;79.20
40059;SHT31;25763;49.972;8.568;2022-12-29T03:50:05;11.59;79.10
40059;SHT31;25763;49.972;8.568;2022-12-29T03:52:30;11.62;78.81
40059;SHT31;25763;49.972;8.568;2022-12-29T03:54:56;11.62;78.73
40059;SHT31;25763;49.972;8.568;2022-12-29T03:57:21;11.69;78.32
40059;SHT31;25763;49.972;8.568;2022-12-29T03:59:46;11.67;78.37
40059;SHT31;25763;49.972;8.568;2022-12-29T04:02:12;11.70;78.05
40059;SHT31;25763;49.972;8.568;2022-12-29T04:04:37;11.73;77.94
40059;SHT31;25763;49.972;8.568;2022-12-29T04:07:02;11.73;77.83
40059;SHT31;25763;49.972;8.568;2022-12-29T04:09:27;11.76;77.52
40059;SHT31;25763;49.972;8.568;2022-12-29T04:11:54;11.84;76.93
40059;SHT31;25763;49.972;8.568;2022-12-29T04:14:20;11.83;77.00
40059;SHT31;25763;49.972;8.568;2022-12-29T04:16:45;11.86;76.68
40059;SHT31;25763;49.972;8.568;2022-12-29T04:19:10;11.86;76.44
40059;SHT31;25763;49.972;8.568;2022-12-29T04:21:36;11.94;75.96
40059;SHT31;25763;49.972;8.568;2022-12-29T04:24:01;12.04;75.29
40059;SHT31;25763;49.972;8.568;2022-12-29T04:26:26;12.01;75.25
40059;SHT31;25763;49.972;8.568;2022-12-29T04:28:52;11.98;75.52
40059;SHT31;25763;49.972;8.568;2022-12-29T04:31:17;12.04;75.09
40059;SHT31;25763;49.972;8.568;2022-12-29T04:33:43;12.09;74.69
40059;SHT31;25763;49.972;8.568;2022-12-29T04:36:08;12.09;74.48
40059;SHT31;25763;49.972;8.568;2022-12-29T04:38:34;12.15;74.40
40059;SHT31;25763;49.972;8.568;2022-12-29T04:41:00;12.15;74.35
40059;SHT31;25763;49.972;8.568;2022-12-29T04:43:26;12.17;74.17
40059;SHT31;25763;49.972;8.568;2022-12-29T04:45:51;12.14;74.41
40059;SHT31;25763;49.972;8.568;2022-12-29T04:48:16;12.14;74.20
40059;SHT31;25763;49.972;8.568;2022-12-29T04:50:42;12.18;74.21
40059;SHT31;25763;49.972;8.568;2022-12-29T04:53:08;12.20;74.68
40059;SHT31;25763;49.972;8.568;2022-12-29T04:55:33;12.12;75.88
40059;SHT31;25763;49.972;8.568;2022-12-29T04:57:59;12.04;76.17
40059;SHT31;25763;49.972;8.568;2022-12-29T05:00:24;12.05;76.34
40059;SHT31;25763;49.972;8.568;2022-12-29T05:02:50;12.06;76.09
40059;SHT31;25763;49.972;8.568;2022-12-29T05:05:16;12.05;75.77
40059;SHT31;25763;49.972;8.568;2022-12-29T05:07:41;12.08;75.86
40059;SHT31;25763;49.972;8.568;2022-12-29T05:10:08;12.05;76.02
40059;SHT31;25763;49.972;8.568;2022-12-29T05:12:34;12.04;75.83
40059;SHT31;25763;49.972;8.568;2022-12-29T05:15:00;12.09;75.76
40059;SHT31;25763;49.972;8.568;2022-12-29T05:17:28;12.09;75.68
40059;SHT31;25763;49.972;8.568;2022-12-29T05:19:53;12.15;75.37
40059;SHT31;25763;49.972;8.568;2022-12-29T05:22:18;12.14;75.45
40059;SHT31;25763;49.972;8.568;2022-12-29T05:24:44;12.14;75.59
40059;SHT31;25763;49.972;8.568;2022-12-29T05:27:09;12.17;75.41
40059;SHT31;25763;49.972;8.568;2022-12-29T05:29:35;12.15;75.56
40059;SHT31;25763;49.972;8.568;2022-12-29T05:32:00;12.18;75.48
40059;SHT31;25763;49.972;8.568;2022-12-29T05:34:25;12.15;75.62
40059;SHT31;25763;49.972;8.568;2022-12-29T05:36:51;12.14;75.49
40059;SHT31;25763;49.972;8.568;2022-12-29T05:39:16;12.22;75.21
40059;SHT31;25763;49.972;8.568;2022-12-29T05:41:42;12.20;75.12
40059;SHT31;25763;49.972;8.568;2022-12-29T05:44:07;12.26;74.84
40059;SHT31;25763;49.972;8.568;2022-12-29T05:46:32;12.25;74.71
40059;SHT31;25763;49.972;8.568;2022-12-29T05:48:58;12.28;74.46
40059;SHT31;25763;49.972;8.568;2022-12-29T05:51:23;12.30;74.23
40059;SHT31;25763;49.972;8.568;2022-12-29T05:53:49;12.26;74.57
40059;SHT31;25763;49.972;8.568;2022-12-29T05:56:15;12.30;74.08
40059;SHT31;25763;49.972;8.568;2022-12-29T05:58:40;12.38;73.78
40059;SHT31;25763;49.972;8.568;2022-12-29T06:01:06;12.39;73.55
40059;SHT31;25763;49.972;8.568;2022-12-29T06:03:31;12.36;73.83
40059;SHT31;25763;49.972;8.568;2022-12-29T06:05:57;12.43;73.38
40059;SHT31;25763;49.972;8.568;2022-12-29T06:08:22;12.49;73.00
40059;SHT31;25763;49.972;8.568;2022-12-29T06:10:47;12.49;73.02
40059;SHT31;25763;49.972;8.568;2022-12-29T06:13:13;12.53;73.00
40059;SHT31;25763;49.972;8.568;2022-12-29T06:15:38;12.53;72.70
40059;SHT31;25763;49.972;8.568;2022-12-29T06:18:03;12.50;72.99
40059;SHT31;25763;49.972;8.568;2022-12-29T06:20:29;12.52;72.97
40059;SHT31;25763;49.972;8.568;2022-12-29T06:22:54;12.52;72.85
40059;SHT31;25763;49.972;8.568;2022-12-29T06:25:19;12.55;72.98
40059;SHT31;25763;49.972;8.568;2022-12-29T06:27:45;12.50;72.92
40059;SHT31;25763;49.972;8.568;2022-12-29T06:30:11;12.57;72.57
40059;SHT31;25763;49.972;8.568;2022-12-29T06:32:36;12.56;72.71
40059;SHT31;25763;49.972;8.568;2022-12-29T06:35:03;12.55;72.89
40059;SHT31;25763;49.972;8.568;2022-12-29T06:37:28;12.53;73.22
40059;SHT31;25763;49.972;8.568;2022-12-29T06:39:54;12.45;73.38
40059;SHT31;25763;49.972;8.568;2022-12-29T06:42:19;12.47;72.92
40059;SHT31;25763;49.972;8.568;2022-12-29T06:44:45;12.47;73.12
40059;SHT31;25763;49.972;8.568;2022-12-29T06:47:10;12.45;73.25
40059;SHT31;25763;49.972;8.568;2022-12-29T06:49:36;12.43;73.41
40059;SHT31;25763;49.972;8.568;2022-12-29T06:52:01;12.43;73.25
40059;SHT31;25763;49.972;8.568;2022-12-29T06:54:32;12.40;73.22
40059;SHT31;25763;49.972;8.568;2022-12-29T06:56:58;12.40;73.37
40059;SHT31;25763;49.972;8.568;2022-12-29T06:59:24;12.38;73.23
40059;SHT31;25763;49.972;8.568;2022-12-29T07:01:49;12.39;73.25
40059;SHT31;25763;49.972;8.568;2022-12-29T07:04:15;12.38;73.09
40059;SHT31;25763;49.972;8.568;2022-12-29T07:06:40;12.40;72.92
40059;SHT31;25763;49.972;8.568;2022-12-29T07:09:07;12.39;73.09
40059;SHT31;25763;49.972;8.568;2022-12-29T07:11:32;12.36;73.08
40059;SHT31;25763;49.972;8.568;2022-12-29T07:13:58;12.45;72.61
40059;SHT31;25763;49.972;8.568;2022-12-29T07:16:23;12.42;72.51
40059;SHT31;25763;49.972;8.568;2022-12-29T07:18:49;12.40;73.46
40059;SHT31;25763;49.972;8.568;2022-12-29T07:21:14;12.36;74.08
40059;SHT31;25763;49.972;8.568;2022-12-29T07:23:39;12.33;73.93
40059;SHT31;25763;49.972;8.568;2022-12-29T07:26:07;12.35;74.03
40059;SHT31;25763;49.972;8.568;2022-12-29T07:28:34;12.36;73.69
40059;SHT31;25763;49.972;8.568;2022-12-29T07:31:00;12.39;73.22
40059;SHT31;25763;49.972;8.568;2022-12-29T07:33:28;12.39;73.10
40059;SHT31;25763;49.972;8.568;2022-12-29T07:35:54;12.43;73.00
40059;SHT31;25763;49.972;8.568;2022-12-29T07:38:19;12.42;73.20
40059;SHT31;25763;49.972;8.568;2022-12-29T07:40:44;12.49;72.70
40059;SHT31;25763;49.972;8.568;2022-12-29T07:43:10;12.46;73.08
40059;SHT31;25763;49.972;8.568;2022-12-29T07:45:35;12.46;73.03
40059;SHT31;25763;49.972;8.568;2022-12-29T07:48:00;12.45;73.44
40059;SHT31;25763;49.972;8.568;2022-12-29T07:50:28;12.45;73.31
40059;SHT31;25763;49.972;8.568;2022-12-29T07:52:53;12.43;73.42
40059;SHT31;25763;49.972;8.568;2022-12-29T07:55:18;12.43;73.46
40059;SHT31;25763;49.972;8.568;2022-12-29T07:57:44;12.43;73.34
40059;SHT31;25763;49.972;8.568;2022-12-29T08:00:09;12.46;73.28
40059;SHT31;25763;49.972;8.568;2022-12-29T08:02:35;12.47;73.08
40059;SHT31;25763;49.972;8.568;2022-12-29T08:05:01;12.49;72.86
40059;SHT31;25763;49.972;8.568;2022-12-29T08:07:26;12.56;72.68
40059;SHT31;25763;49.972;8.568;2022-12-29T08:09:52;12.53;72.75
40059;SHT31;25763;49.972;8.568;2022-12-29T08:12:17;12.56;73.12
40059;SHT31;25763;49.972;8.568;2022-12-29T08:14:43;12.57;73.13
40059;SHT31;25763;49.972;8.568;2022-12-29T08:17:08;12.50;73.82
40059;SHT31;25763;49.972;8.568;2022-12-29T08:19:33;12.52;73.51
40059;SHT31;25763;49.972;8.568;2022-12-29T08:21:59;12.52;73.16
40059;SHT31;25763;49.972;8.568;2022-12-29T08:24:24;12.53;72.98
40059;SHT31;25763;49.972;8.568;2022-12-29T08:26:49;12.52;73.03
40059;SHT31;25763;49.972;8.568;2022-12-29T08:29:15;12.59;72.56
40059;SHT31;25763;49.972;8.568;2022-12-29T08:31:40;12.63;72.36
40059;SHT31;25763;49.972;8.568;2022-12-29T08:34:05;12.65;71.98
40059;SHT31;25763;49.972;8.568;2022-12-29T08:36:31;12.68;72.02
40059;SHT31;25763;49.972;8.568;2022-12-29T08:38:57;12.70;71.89
40059;SHT31;25763;49.972;8.568;2022-12-29T08:41:22;12.67;72.06
40059;SHT31;25763;49.972;8.568;2022-12-29T08:43:49;12.64;72.54
40059;SHT31;25763;49.972;8.568;2022-12-29T08:46:15;12.67;72.57
40059;SHT31;25763;49.972;8.568;2022-12-29T08:48:41;12.64;72.73
40059;SHT31;25763;49.972;8.568;2022-12-29T08:51:06;12.65;72.32
40059;SHT31;25763;49.972;8.568;2022-12-29T08:53:33;12.67;72.35
40059;SHT31;25763;49.972;8.568;2022-12-29T08:55:59;12.70;71.98
40059;SHT31;25763;49.972;8.568;2022-12-29T08:58:25;12.74;71.69
40059;SHT31;25763;49.972;8.568;2022-12-29T09:00:55;12.75;71.69
40059;SHT31;25763;49.972;8.568;2022-12-29T09:03:21;12.77;71.56
40059;SHT31;25763;49.972;8.568;2022-12-29T09:05:51;12.80;71.23
40059;SHT31;25763;49.972;8.568;2022-12-29T09:08:17;12.80;71.21
40059;SHT31;25763;49.972;8.568;2022-12-29T09:10:43;12.85;70.94
40059;SHT31;25763;49.972;8.568;2022-12-29T09:13:10;12.87;71.09
40059;SHT31;25763;49.972;8.568;2022-12-29T09:15:36;12.77;72.65
40059;SHT31;25763;49.972;8.568;2022-12-29T09:18:01;12.75;72.94
40059;SHT31;25763;49.972;8.568;2022-12-29T09:20:27;12.70;73.03
40059;SHT31;25763;49.972;8.568;2022-12-29T09:22:52;12.64;73.94
40059;SHT31;25763;49.972;8.568;2022-12-29T09:25:17;12.60;73.97
40059;SHT31;25763;49.972;8.568;2022-12-29T09:27:43;12.53;74.36
40059;SHT31;25763;49.972;8.568;2022-12-29T09:30:11;12.55;74.20
40059;SHT31;25763;49.972;8.568;2022-12-29T09:32:36;12.52;74.08
40059;SHT31;25763;49.972;8.568;2022-12-29T09:35:02;12.52;74.95
40059;SHT31;25763;49.972;8.568;2022-12-29T09:37:28;12.50;74.45
40059;SHT31;25763;49.972;8.568;2022-12-29T09:39:53;12.50;75.05
40059;SHT31;25763;49.972;8.568;2022-12-29T09:47:42;12.39;75.32
40059;SHT31;25763;49.972;8.568;2022-12-29T09:50:28;12.39;75.41
40059;SHT31;25763;49.972;8.568;2022-12-29T09:55:31;12.21;78.38
40059;SHT31;25763;49.972;8.568;2022-12-29T09:58:04;11.69;82.06
40059;SHT31;25763;49.972;8.568;2022-12-29T10:00:42;11.48;83.59
40059;SHT31;25763;49.972;8.568;2022-12-29T10:03:14;11.24;85.02
40059;SHT31;25763;49.972;8.568;2022-12-29T10:10:53;10.79;87.57
40059;SHT31;25763;49.972;8.568;2022-12-29T10:13:26;10.71;88.11
40059;SHT31;25763;49.972;8.568;2022-12-29T10:21:40;10.71;86.10
40059;SHT31;25763;49.972;8.568;2022-12-29T10:24:11;10.73;85.35
40059;SHT31;25763;49.972;8.568;2022-12-29T10:26:40;10.69;84.83
40059;SHT31;25763;49.972;8.568;2022-12-29T10:29:24;10.71;85.36
40059;SHT31;25763;49.972;8.568;2022-12-29T10:31:58;10.65;84.84
40059;SHT31;25763;49.972;8.568;2022-12-29T10:34:28;10.65;85.34
40059;SHT31;25763;49.972;8.568;2022-12-29T10:37:00;10.59;85.45
40059;SHT31;25763;49.972;8.568;2022-12-29T10:39:30;10.67;85.30
40059;SHT31;25763;49.972;8.568;2022-12-29T10:42:12;10.68;84.87
40059;SHT31;25763;49.972;8.568;2022-12-29T10:44:38;10.68;84.77
40059;SHT31;25763;49.972;8.568;2022-12-29T10:47:09;10.73;84.97
40059;SHT31;25763;49.972;8.568;2022-12-29T10:49:40;10.71;84.84
40059;SHT31;25763;49.972;8.568;2022-12-29T10:52:06;10.71;84.40
40059;SHT31;25763;49.972;8.568;2022-12-29T10:54:39;10.75;84.48
40059;SHT31;25763;49.972;8.568;2022-12-29T10:59:41;10.82;84.73
40059;SHT31;25763;49.972;8.568;2022-12-29T11:07:21;11.08;84.72
40059;SHT31;25763;49.972;8.568;2022-12-29T11:09:47;11.10;84.33
40059;SHT31;25763;49.972;8.568;2022-12-29T11:12:25;11.21;84.45
40059;SHT31;25763;49.972;8.568;2022-12-29T11:17:27;11.27;84.59
40059;SHT31;25763;49.972;8.568;2022-12-29T11:19:52;11.27;84.05
40059;SHT31;25763;49.972;8.568;2022-12-29T11:22:23;11.28;83.89
40059;SHT31;25763;49.972;8.568;2022-12-29T11:24:51;11.39;83.75
40059;SHT31;25763;49.972;8.568;2022-12-29T11:27:20;11.55;83.80
40059;SHT31;25763;49.972;8.568;2022-12-29T11:29:49;11.61;83.09
40059;SHT31;25763;49.972;8.568;2022-12-29T11:32:19;11.71;83.07
40059;SHT31;25763;49.972;8.568;2022-12-29T11:34:45;11.74;81.96
40059;SHT31;25763;49.972;8.568;2022-12-29T11:37:16;11.80;81.48
40059;SHT31;25763;49.972;8.568;2022-12-29T11:42:36;11.86;80.45
40059;SHT31;25763;49.972;8.568;2022-12-29T11:45:26;11.88;80.02
40059;SHT31;25763;49.972;8.568;2022-12-29T11:47:58;11.99;79.91
40059;SHT31;25763;49.972;8.568;2022-12-29T11:50:26;12.22;78.40
40059;SHT31;25763;49.972;8.568;2022-12-29T11:53:03;12.22;78.76
40059;SHT31;25763;49.972;8.568;2022-12-29T11:55:31;12.18;78.60
40059;SHT31;25763;49.972;8.568;2022-12-29T11:58:00;12.09;78.28
40059;SHT31;25763;49.972;8.568;2022-12-29T12:00:28;12.09;78.58
40059;SHT31;25763;49.972;8.568;2022-12-29T12:03:00;12.15;78.82
40059;SHT31;25763;49.972;8.568;2022-12-29T12:05:46;12.11;78.71
40059;SHT31;25763;49.972;8.568;2022-12-29T12:10:48;12.05;78.05
40059;SHT31;25763;49.972;8.568;2022-12-29T12:13:31;12.14;78.26
40059;SHT31;25763;49.972;8.568;2022-12-29T12:16:20;12.20;78.59
40059;SHT31;25763;49.972;8.568;2022-12-29T12:18:53;12.17;77.79
40059;SHT31;25763;49.972;8.568;2022-12-29T12:21:30;12.12;78.11
40059;SHT31;25763;49.972;8.568;2022-12-29T12:27:02;12.18;77.59
40059;SHT31;25763;49.972;8.568;2022-12-29T12:29:50;12.09;78.31
40059;SHT31;25763;49.972;8.568;2022-12-29T12:32:27;12.09;78.79
40059;SHT31;25763;49.972;8.568;2022-12-29T12:34:54;11.95;79.06
40059;SHT31;25763;49.972;8.568;2022-12-29T12:43:04;11.94;80.25
40059;SHT31;25763;49.972;8.568;2022-12-29T12:51:20;12.11;79.68
40059;SHT31;25763;49.972;8.568;2022-12-29T12:54:09;12.01;79.78
40059;SHT31;25763;49.972;8.568;2022-12-29T12:59:23;11.94;79.63
40059;SHT31;25763;49.972;8.568;2022-12-29T13:02:02;11.98;79.65
40059;SHT31;25763;49.972;8.568;2022-12-29T13:08:24;12.04;78.93
40059;SHT31;25763;49.972;8.568;2022-12-29T13:10:57;12.11;79.18
40059;SHT31;25763;49.972;8.568;2022-12-29T13:13:46;12.24;79.30
40059;SHT31;25763;49.972;8.568;2022-12-29T13:19:16;12.56;77.78
40059;SHT31;25763;49.972;8.568;2022-12-29T13:28:04;12.42;76.83
40059;SHT31;25763;49.972;8.568;2022-12-29T13:30:48;12.39;77.26
40059;SHT31;25763;49.972;8.568;2022-12-29T13:36:24;12.32;77.01
40059;SHT31;25763;49.972;8.568;2022-12-29T13:39:25;12.26;76.86
40059;SHT31;25763;49.972;8.568;2022-12-29T13:41:53;12.25;76.89
40059;SHT31;25763;49.972;8.568;2022-12-29T13:44:27;12.25;77.14
40059;SHT31;25763;49.972;8.568;2022-12-29T13:46:56;12.22;76.63
40059;SHT31;25763;49.972;8.568;2022-12-29T13:49:22;12.18;76.19
40059;SHT31;25763;49.972;8.568;2022-12-29T13:51:56;12.20;76.37
40059;SHT31;25763;49.972;8.568;2022-12-29T13:54:46;12.14;76.25
40059;SHT31;25763;49.972;8.568;2022-12-29T13:59:55;12.17;75.74
40059;SHT31;25763;49.972;8.568;2022-12-29T14:02:42;12.21;74.98
40059;SHT31;25763;49.972;8.568;2022-12-29T14:07:59;12.17;74.94
40059;SHT31;25763;49.972;8.568;2022-12-29T14:10:36;12.14;74.70
40059;SHT31;25763;49.972;8.568;2022-12-29T14:13:23;12.11;74.71
40059;SHT31;25763;49.972;8.568;2022-12-29T14:15:54;12.09;74.87
40059;SHT31;25763;49.972;8.568;2022-12-29T14:18:26;12.05;75.04
40059;SHT31;25763;49.972;8.568;2022-12-29T14:20:58;12.05;74.59
40059;SHT31;25763;49.972;8.568;2022-12-29T14:30:53;12.20;74.11
40059;SHT31;25763;49.972;8.568;2022-12-29T14:33:20;12.17;74.58
40059;SHT31;25763;49.972;8.568;2022-12-29T14:35:47;12.11;74.63
40059;SHT31;25763;49.972;8.568;2022-12-29T14:38:25;12.09;74.59
40059;SHT31;25763;49.972;8.568;2022-12-29T14:40:52;12.04;74.46
40059;SHT31;25763;49.972;8.568;2022-12-29T14:43:26;12.01;74.48
40059;SHT31;25763;49.972;8.568;2022-12-29T14:46:00;11.97;74.47
40059;SHT31;25763;49.972;8.568;2022-12-29T14:48:35;11.99;74.49
40059;SHT31;25763;49.972;8.568;2022-12-29T14:51:01;11.99;74.11
40059;SHT31;25763;49.972;8.568;2022-12-29T14:53:49;12.04;73.05
40059;SHT31;25763;49.972;8.568;2022-12-29T14:56:17;12.08;73.13
40059;SHT31;25763;49.972;8.568;2022-12-29T14:58:54;12.05;72.17
40059;SHT31;25763;49.972;8.568;2022-12-29T15:04:03;11.94;72.30
40059;SHT31;25763;49.972;8.568;2022-12-29T15:06:30;11.91;72.25
40059;SHT31;25763;49.972;8.568;2022-12-29T15:09:12;11.81;73.06
40059;SHT31;25763;49.972;8.568;2022-12-29T15:11:55;11.71;73.96
40059;SHT31;25763;49.972;8.568;2022-12-29T15:14:36;11.67;74.28
40059;SHT31;25763;49.972;8.568;2022-12-29T15:17:09;11.63;74.51
40059;SHT31;25763;49.972;8.568;2022-12-29T15:19:35;11.58;74.83
40059;SHT31;25763;49.972;8.568;2022-12-29T15:22:02;11.48;74.96
40059;SHT31;25763;49.972;8.568;2022-12-29T15:24:28;11.44;74.44
40059;SHT31;25763;49.972;8.568;2022-12-29T15:26:53;11.39;75.11
40059;SHT31;25763;49.972;8.568;2022-12-29T15:29:30;11.39;75.26
40059;SHT31;25763;49.972;8.568;2022-12-29T15:31:59;11.31;75.59
40059;SHT31;25763;49.972;8.568;2022-12-29T15:34:29;11.27;75.56
40059;SHT31;25763;49.972;8.568;2022-12-29T15:36:55;11.25;75.63
40059;SHT31;25763;49.972;8.568;2022-12-29T15:39:28;11.21;75.92
40059;SHT31;25763;49.972;8.568;2022-12-29T15:42:01;11.20;76.01
40059;SHT31;25763;49.972;8.568;2022-12-29T15:44:37;11.18;76.16
40059;SHT31;25763;49.972;8.568;2022-12-29T15:47:24;11.14;75.84
40059;SHT31;25763;49.972;8.568;2022-12-29T15:50:04;11.17;75.97
40059;SHT31;25763;49.972;8.568;2022-12-29T15:52:31;11.11;75.51
40059;SHT31;25763;49.972;8.568;2022-12-29T15:54:58;11.10;75.10
40059;SHT31;25763;49.972;8.568;2022-12-29T15:57:29;11.07;74.97
40059;SHT31;25763;49.972;8.568;2022-12-29T15:59:54;11.04;74.78
40059;SHT31;25763;49.972;8.568;2022-12-29T16:02:22;11.01;74.78
40059;SHT31;25763;49.972;8.568;2022-12-29T16:04:49;10.96;75.00
40059;SHT31;25763;49.972;8.568;2022-12-29T16:07:27;10.93;75.36
40059;SHT31;25763;49.972;8.568;2022-12-29T16:09:56;10.90;75.39
40059;SHT31;25763;49.972;8.568;2022-12-29T16:12:24;10.86;75.70
40059;SHT31;25763;49.972;8.568;2022-12-29T16:14:59;10.80;76.16
40059;SHT31;25763;49.972;8.568;2022-12-29T16:17:28;10.75;76.61
40059;SHT31;25763;49.972;8.568;2022-12-29T16:19:57;10.69;76.95
40059;SHT31;25763;49.972;8.568;2022-12-29T16:22:32;10.67;77.53
40059;SHT31;25763;49.972;8.568;2022-12-29T16:25:09;10.55;77.95
40059;SHT31;25763;49.972;8.568;2022-12-29T16:27:40;10.52;77.91
40059;SHT31;25763;49.972;8.568;2022-12-29T16:32:46;10.38;78.48
40059;SHT31;25763;49.972;8.568;2022-12-29T16:35:20;10.34;78.91
40059;SHT31;25763;49.972;8.568;2022-12-29T16:37:46;10.28;79.12
40059;SHT31;25763;49.972;8.568;2022-12-29T16:42:48;10.20;79.31
40059;SHT31;25763;49.972;8.568;2022-12-29T16:48:17;10.13;79.49
40059;SHT31;25763;49.972;8.568;2022-12-29T16:50:44;10.08;79.70
40059;SHT31;25763;49.972;8.568;2022-12-29T16:53:20;10.03;79.64
40059;SHT31;25763;49.972;8.568;2022-12-29T16:55:48;9.98;80.13
40059;SHT31;25763;49.972;8.568;2022-12-29T16:58:25;9.96;80.31
40059;SHT31;25763;49.972;8.568;2022-12-29T17:00:55;9.93;80.20
40059;SHT31;25763;49.972;8.568;2022-12-29T17:03:23;9.91;80.20
40059;SHT31;25763;49.972;8.568;2022-12-29T17:05:51;9.91;80.34
40059;SHT31;25763;49.972;8.568;2022-12-29T17:08:19;9.91;80.31
40059;SHT31;25763;49.972;8.568;2022-12-29T17:10:50;9.83;80.43
40059;SHT31;25763;49.972;8.568;2022-12-29T17:13:35;9.83;80.40
40059;SHT31;25763;49.972;8.568;2022-12-29T17:16:01;9.86;80.19
40059;SHT31;25763;49.972;8.568;2022-12-29T17:18:26;9.86;79.89
40059;SHT31;25763;49.972;8.568;2022-12-29T17:20:52;9.89;79.47
40059;SHT31;25763;49.972;8.568;2022-12-29T17:23:17;9.88;79.60
40059;SHT31;25763;49.972;8.568;2022-12-29T17:25:42;9.89;79.73
40059;SHT31;25763;49.972;8.568;2022-12-29T17:28:13;9.91;79.71
40059;SHT31;25763;49.972;8.568;2022-12-29T17:30:41;9.88;79.59
40059;SHT31;25763;49.972;8.568;2022-12-29T17:33:10;9.92;79.33
40059;SHT31;25763;49.972;8.568;2022-12-29T17:35:37;9.88;79.44
40059;SHT31;25763;49.972;8.568;2022-12-29T17:38:03;9.89;79.06
40059;SHT31;25763;49.972;8.568;2022-12-29T17:40:35;9.92;79.04
40059;SHT31;25763;49.972;8.568;2022-12-29T17:43:01;9.91;79.07
40059;SHT31;25763;49.972;8.568;2022-12-29T17:45:28;9.92;78.52
40059;SHT31;25763;49.972;8.568;2022-12-29T17:47:54;9.91;78.45
40059;SHT31;25763;49.972;8.568;2022-12-29T17:50:23;9.95;77.79
40059;SHT31;25763;49.972;8.568;2022-12-29T17:53:03;9.95;77.87
40059;SHT31;25763;49.972;8.568;2022-12-29T17:55:30;9.98;78.01
40059;SHT31;25763;49.972;8.568;2022-12-29T17:57:55;9.93;78.07
40059;SHT31;25763;49.972;8.568;2022-12-29T18:00:24;9.95;77.67
40059;SHT31;25763;49.972;8.568;2022-12-29T18:02:52;9.96;77.68